RYR363C LEMI-EGHH
Flight info
| Callsign | RYR363C |
|---|---|
| Flight time | 1h 57m |
| Altitude | 33000 |
| Route | ALT M176 SERRA/N0434F340 DCT RUBEO DCT TOPTU DCT LULUT DCT MANAK UT183 TIRAV UT501 USODA UM184 EKRAS UT507 REVTU UP87 ROXOG DCT THRED |
| Aircraft | B738/M-SDE2E3FGHIRWXY/LB1 |
Departure
| Time | 2026-04-30 18:45 |
|---|---|
| Airport | Region of Murcia International Airport (LEMI) |
Arrival
| Time | 2026-04-30 20:43 |
|---|---|
| Airport | Bournemouth Airport (EGHH) |
| Time | Latitude | Longitude | Altitude | Speed | Heading |
|---|---|---|---|---|---|
| 2026-04-30 18:25 | 37.80409 | -1.13053 | 646 ft | 0 kts | 315° |
| 2026-04-30 18:37 | 37.80408 | -1.13052 | 646 ft | 2 kts | 315° |
| 2026-04-30 18:37 | 37.80391 | -1.13029 | 655 ft | 4 kts | 308° |
| 2026-04-30 18:38 | 37.80376 | -1.13001 | 646 ft | 4 kts | 294° |
| 2026-04-30 18:38 | 37.80370 | -1.12970 | 647 ft | 4 kts | 256° |
| 2026-04-30 18:38 | 37.80376 | -1.12953 | 648 ft | 1 kts | 225° |
| 2026-04-30 18:38 | 37.80378 | -1.12951 | 647 ft | 0 kts | 225° |
| 2026-04-30 18:40 | 37.80368 | -1.12963 | 647 ft | 5 kts | 223° |
| 2026-04-30 18:40 | 37.80329 | -1.13013 | 646 ft | 11 kts | 226° |
| 2026-04-30 18:40 | 37.80260 | -1.13102 | 646 ft | 18 kts | 225° |
| 2026-04-30 18:41 | 37.80150 | -1.13124 | 647 ft | 21 kts | 135° |
| 2026-04-30 18:41 | 37.80172 | -1.12964 | 645 ft | 25 kts | 44° |
| 2026-04-30 18:41 | 37.80307 | -1.12792 | 647 ft | 30 kts | 45° |
| 2026-04-30 18:41 | 37.80459 | -1.12595 | 648 ft | 32 kts | 45° |
| 2026-04-30 18:42 | 37.80609 | -1.12402 | 649 ft | 30 kts | 45° |
| 2026-04-30 18:42 | 37.80884 | -1.12047 | 646 ft | 27 kts | 44° |
| 2026-04-30 18:42 | 37.81019 | -1.11873 | 647 ft | 28 kts | 46° |
| 2026-04-30 18:45 | 37.79637 | -1.13337 | 831 ft | 171 kts | 225° |
| 2026-04-30 18:45 | 37.78793 | -1.14407 | 1475 ft | 177 kts | 218° |
| 2026-04-30 18:45 | 37.77805 | -1.15305 | 2355 ft | 171 kts | 213° |
| 2026-04-30 18:46 | 37.76823 | -1.16179 | 3029 ft | 176 kts | 212° |
| 2026-04-30 18:46 | 37.75816 | -1.17077 | 3666 ft | 180 kts | 212° |
| 2026-04-30 18:46 | 37.74747 | -1.18027 | 4062 ft | 201 kts | 213° |
| 2026-04-30 18:46 | 37.73536 | -1.19103 | 4252 ft | 224 kts | 214° |
| 2026-04-30 18:47 | 37.72257 | -1.20391 | 4439 ft | 247 kts | 221° |
| 2026-04-30 18:47 | 37.70949 | -1.21912 | 4873 ft | 261 kts | 223° |
| 2026-04-30 18:47 | 37.69601 | -1.23485 | 5577 ft | 265 kts | 223° |
| 2026-04-30 18:47 | 37.68244 | -1.25053 | 6390 ft | 264 kts | 223° |
| 2026-04-30 18:48 | 37.66884 | -1.26621 | 7152 ft | 264 kts | 225° |
| 2026-04-30 18:48 | 37.65863 | -1.28517 | 7870 ft | 266 kts | 252° |
| 2026-04-30 18:48 | 37.65714 | -1.30817 | 8608 ft | 267 kts | 278° |
| 2026-04-30 18:48 | 37.66407 | -1.33008 | 9260 ft | 275 kts | 304° |
| 2026-04-30 18:49 | 37.67839 | -1.34619 | 9952 ft | 282 kts | 331° |
| 2026-04-30 18:49 | 37.69747 | -1.35269 | 10563 ft | 290 kts | 358° |
| 2026-04-30 18:49 | 37.71732 | -1.34784 | 11194 ft | 296 kts | 25° |
| 2026-04-30 18:49 | 37.73340 | -1.33167 | 11843 ft | 300 kts | 55° |
| 2026-04-30 18:50 | 37.74326 | -1.30844 | 12508 ft | 303 kts | 68° |
| 2026-04-30 18:50 | 37.75094 | -1.28348 | 13178 ft | 307 kts | 71° |
| 2026-04-30 18:50 | 37.75838 | -1.25802 | 13868 ft | 311 kts | 71° |
| 2026-04-30 18:50 | 37.76608 | -1.23239 | 14525 ft | 313 kts | 70° |
| 2026-04-30 18:51 | 37.77413 | -1.20665 | 15215 ft | 316 kts | 69° |
| 2026-04-30 18:51 | 37.78240 | -1.18085 | 15909 ft | 318 kts | 69° |
| 2026-04-30 18:51 | 37.79081 | -1.15488 | 16592 ft | 320 kts | 69° |
| 2026-04-30 18:51 | 37.79947 | -1.12886 | 17256 ft | 324 kts | 64° |
| 2026-04-30 18:52 | 37.81314 | -1.10581 | 17689 ft | 337 kts | 45° |
| 2026-04-30 18:52 | 37.83072 | -1.08486 | 17836 ft | 357 kts | 43° |
| 2026-04-30 18:52 | 37.85015 | -1.06400 | 17991 ft | 376 kts | 34° |
| 2026-04-30 18:52 | 37.87409 | -1.04895 | 18128 ft | 394 kts | 17° |
| 2026-04-30 18:53 | 37.90146 | -1.04228 | 18274 ft | 409 kts | 5° |
| 2026-04-30 18:53 | 37.93037 | -1.03861 | 18383 ft | 425 kts | 4° |
| 2026-04-30 18:53 | 37.96037 | -1.03520 | 18460 ft | 440 kts | 4° |
| 2026-04-30 18:53 | 37.99127 | -1.03168 | 18576 ft | 451 kts | 4° |
| 2026-04-30 18:54 | 38.02271 | -1.02791 | 18864 ft | 457 kts | 4° |
| 2026-04-30 18:54 | 38.05444 | -1.02391 | 19308 ft | 459 kts | 5° |
| 2026-04-30 18:54 | 38.08620 | -1.01974 | 19750 ft | 460 kts | 5° |
| 2026-04-30 18:54 | 38.11772 | -1.01551 | 20158 ft | 463 kts | 5° |
| 2026-04-30 18:55 | 38.14982 | -1.01116 | 20534 ft | 466 kts | 5° |
| 2026-04-30 18:55 | 38.21460 | -1.00231 | 21349 ft | 470 kts | 5° |
| 2026-04-30 18:55 | 38.24727 | -0.99784 | 21737 ft | 473 kts | 5° |
| 2026-04-30 18:56 | 38.31310 | -0.98885 | 22409 ft | 479 kts | 5° |
| 2026-04-30 18:56 | 38.34637 | -0.98430 | 22764 ft | 482 kts | 5° |
| 2026-04-30 18:56 | 38.37981 | -0.97973 | 23129 ft | 484 kts | 5° |
| 2026-04-30 18:57 | 38.44706 | -0.97053 | 23730 ft | 489 kts | 5° |
| 2026-04-30 18:57 | 38.48108 | -0.96587 | 24013 ft | 491 kts | 5° |
| 2026-04-30 18:57 | 38.51511 | -0.96120 | 24311 ft | 493 kts | 5° |
| 2026-04-30 18:58 | 38.58338 | -0.95181 | 24863 ft | 496 kts | 4° |
| 2026-04-30 18:58 | 38.61779 | -0.94708 | 25111 ft | 498 kts | 4° |
| 2026-04-30 18:58 | 38.65225 | -0.94233 | 25390 ft | 499 kts | 4° |
| 2026-04-30 18:59 | 38.72156 | -0.93277 | 25914 ft | 501 kts | 4° |
| 2026-04-30 19:00 | 38.82528 | -0.91843 | 26960 ft | 498 kts | 4° |
| 2026-04-30 19:00 | 38.85972 | -0.91367 | 27288 ft | 498 kts | 4° |
| 2026-04-30 19:00 | 38.92848 | -0.90411 | 28007 ft | 496 kts | 3° |
| 2026-04-30 19:01 | 38.99685 | -0.89460 | 28791 ft | 493 kts | 3° |
| 2026-04-30 19:01 | 39.03097 | -0.88985 | 29130 ft | 493 kts | 3° |
| 2026-04-30 19:02 | 39.09912 | -0.88035 | 29908 ft | 491 kts | 3° |
| 2026-04-30 19:02 | 39.16703 | -0.87086 | 30528 ft | 490 kts | 3° |
| 2026-04-30 19:03 | 39.23501 | -0.86135 | 31022 ft | 492 kts | 3° |
| 2026-04-30 19:03 | 39.30307 | -0.85242 | 31564 ft | 491 kts | 1° |
| 2026-04-30 19:04 | 39.37132 | -0.84584 | 32076 ft | 492 kts | 360° |
| 2026-04-30 19:04 | 39.43917 | -0.83965 | 32579 ft | 493 kts | 360° |
| 2026-04-30 19:05 | 39.50756 | -0.83307 | 33127 ft | 492 kts | 359° |
| 2026-04-30 19:05 | 39.57584 | -0.82631 | 33595 ft | 493 kts | 359° |
| 2026-04-30 19:06 | 39.64420 | -0.81943 | 34173 ft | 491 kts | 360° |
| 2026-04-30 19:06 | 39.67821 | -0.81601 | 34421 ft | 490 kts | 360° |
| 2026-04-30 19:06 | 39.74607 | -0.80921 | 34897 ft | 489 kts | 0° |
| 2026-04-30 19:07 | 39.81414 | -0.80241 | 35077 ft | 492 kts | 1° |
| 2026-04-30 19:07 | 39.84830 | -0.79899 | 35095 ft | 493 kts | 1° |
| 2026-04-30 19:08 | 39.98558 | -0.78516 | 35076 ft | 496 kts | 1° |
| 2026-04-30 19:09 | 40.08833 | -0.77476 | 35087 ft | 490 kts | 2° |
| 2026-04-30 19:09 | 40.15628 | -0.76791 | 35084 ft | 490 kts | 2° |
| 2026-04-30 19:10 | 40.29251 | -0.75405 | 35089 ft | 492 kts | 2° |
| 2026-04-30 19:11 | 40.39503 | -0.74359 | 35090 ft | 493 kts | 2° |
| 2026-04-30 19:12 | 40.46346 | -0.73659 | 35091 ft | 493 kts | 2° |
| 2026-04-30 19:12 | 40.53164 | -0.72960 | 35084 ft | 490 kts | 2° |
| 2026-04-30 19:13 | 40.66753 | -0.71564 | 35080 ft | 489 kts | 2° |
| 2026-04-30 19:14 | 40.73545 | -0.70864 | 35078 ft | 490 kts | 2° |
| 2026-04-30 19:14 | 40.80338 | -0.70162 | 35079 ft | 490 kts | 2° |
| 2026-04-30 19:15 | 40.87094 | -0.69462 | 35083 ft | 490 kts | 2° |
| 2026-04-30 19:15 | 40.97326 | -0.68528 | 35073 ft | 486 kts | 357° |
| 2026-04-30 19:16 | 41.04028 | -0.68753 | 35083 ft | 485 kts | 354° |
| 2026-04-30 19:17 | 41.14134 | -0.69358 | 35079 ft | 485 kts | 355° |
| 2026-04-30 19:17 | 41.24248 | -0.69835 | 35066 ft | 485 kts | 355° |
| 2026-04-30 19:18 | 41.33261 | -0.70215 | 35066 ft | 484 kts | 355° |
| 2026-04-30 19:19 | 41.39945 | -0.70498 | 35069 ft | 482 kts | 355° |
| 2026-04-30 19:19 | 41.50043 | -0.70930 | 35068 ft | 482 kts | 355° |
| 2026-04-30 19:20 | 41.56743 | -0.71220 | 35073 ft | 482 kts | 355° |
| 2026-04-30 19:21 | 41.66790 | -0.71654 | 35070 ft | 482 kts | 355° |
| 2026-04-30 19:22 | 41.80148 | -0.72233 | 35078 ft | 481 kts | 355° |
| 2026-04-30 19:23 | 42.00162 | -0.73104 | 35087 ft | 479 kts | 354° |
| 2026-04-30 19:24 | 42.10157 | -0.73542 | 35086 ft | 479 kts | 354° |
| 2026-04-30 19:25 | 42.26797 | -0.74274 | 35091 ft | 478 kts | 354° |
| 2026-04-30 19:26 | 42.40082 | -0.74862 | 35100 ft | 476 kts | 354° |
| 2026-04-30 19:27 | 42.50012 | -0.75301 | 35116 ft | 476 kts | 354° |
| 2026-04-30 19:28 | 42.59948 | -0.75742 | 35125 ft | 476 kts | 354° |
| 2026-04-30 19:29 | 42.73168 | -0.76332 | 35134 ft | 474 kts | 354° |
| 2026-04-30 19:30 | 42.86364 | -0.76925 | 35137 ft | 475 kts | 354° |
| 2026-04-30 19:31 | 42.99536 | -0.77517 | 35148 ft | 475 kts | 354° |
| 2026-04-30 19:31 | 43.09429 | -0.77964 | 35162 ft | 473 kts | 354° |
| 2026-04-30 19:32 | 43.16015 | -0.78262 | 35148 ft | 473 kts | 354° |
| 2026-04-30 19:32 | 43.22600 | -0.78557 | 35154 ft | 473 kts | 354° |
| 2026-04-30 19:33 | 43.29170 | -0.78856 | 35152 ft | 472 kts | 354° |
| 2026-04-30 19:33 | 43.35738 | -0.79159 | 35149 ft | 472 kts | 354° |
| 2026-04-30 19:34 | 43.42299 | -0.79460 | 35149 ft | 472 kts | 354° |
| 2026-04-30 19:35 | 43.52126 | -0.79910 | 35153 ft | 470 kts | 354° |
| 2026-04-30 19:35 | 43.58659 | -0.80210 | 35142 ft | 470 kts | 354° |
| 2026-04-30 19:36 | 43.65184 | -0.80511 | 35159 ft | 469 kts | 354° |
| 2026-04-30 19:36 | 43.74969 | -0.80963 | 35149 ft | 469 kts | 353° |
| 2026-04-30 19:37 | 43.81483 | -0.81264 | 35154 ft | 468 kts | 353° |
| 2026-04-30 19:37 | 43.87986 | -0.81565 | 35157 ft | 467 kts | 353° |
| 2026-04-30 19:38 | 43.94466 | -0.81867 | 35152 ft | 466 kts | 353° |
| 2026-04-30 19:38 | 44.00948 | -0.82170 | 35152 ft | 466 kts | 353° |
| 2026-04-30 19:39 | 44.07424 | -0.82472 | 35155 ft | 465 kts | 353° |
| 2026-04-30 19:39 | 44.13881 | -0.82774 | 35145 ft | 464 kts | 353° |
| 2026-04-30 19:40 | 44.20334 | -0.83077 | 35144 ft | 464 kts | 353° |
| 2026-04-30 19:40 | 44.26780 | -0.83381 | 35148 ft | 463 kts | 353° |
| 2026-04-30 19:41 | 44.33224 | -0.83684 | 35143 ft | 463 kts | 353° |
| 2026-04-30 19:41 | 44.39620 | -0.83986 | 35144 ft | 463 kts | 353° |
| 2026-04-30 19:42 | 44.46057 | -0.84321 | 35147 ft | 463 kts | 354° |
| 2026-04-30 19:42 | 44.52492 | -0.84679 | 35144 ft | 463 kts | 354° |
| 2026-04-30 19:43 | 44.58920 | -0.85037 | 35147 ft | 463 kts | 354° |
| 2026-04-30 19:44 | 44.68573 | -0.85569 | 35157 ft | 462 kts | 354° |
| 2026-04-30 19:44 | 44.74995 | -0.85923 | 35155 ft | 462 kts | 354° |
| 2026-04-30 19:45 | 44.81419 | -0.86277 | 35157 ft | 462 kts | 354° |
| 2026-04-30 19:45 | 44.87836 | -0.86632 | 35157 ft | 462 kts | 354° |
| 2026-04-30 19:46 | 44.94256 | -0.86988 | 35153 ft | 461 kts | 354° |
| 2026-04-30 19:46 | 45.00671 | -0.87344 | 35157 ft | 461 kts | 354° |
| 2026-04-30 19:47 | 45.07089 | -0.87702 | 35148 ft | 462 kts | 354° |
| 2026-04-30 19:47 | 45.13505 | -0.88060 | 35143 ft | 461 kts | 354° |
| 2026-04-30 19:48 | 45.19920 | -0.88419 | 35155 ft | 461 kts | 355° |
| 2026-04-30 19:48 | 45.26339 | -0.88779 | 35133 ft | 462 kts | 355° |
| 2026-04-30 19:49 | 45.32759 | -0.89140 | 35152 ft | 462 kts | 355° |
| 2026-04-30 19:49 | 45.42396 | -0.89683 | 35149 ft | 462 kts | 356° |
| 2026-04-30 19:50 | 45.48816 | -0.90045 | 35147 ft | 462 kts | 356° |
| 2026-04-30 19:50 | 45.55248 | -0.90410 | 35150 ft | 462 kts | 356° |
| 2026-04-30 19:51 | 45.61672 | -0.90774 | 35151 ft | 461 kts | 356° |
| 2026-04-30 19:51 | 45.68066 | -0.91138 | 35150 ft | 460 kts | 356° |
| 2026-04-30 19:52 | 45.74455 | -0.91502 | 35156 ft | 459 kts | 356° |
| 2026-04-30 19:52 | 45.80836 | -0.91867 | 35157 ft | 459 kts | 356° |
| 2026-04-30 19:53 | 45.87222 | -0.92233 | 35155 ft | 459 kts | 356° |
| 2026-04-30 19:53 | 45.93614 | -0.92600 | 35155 ft | 459 kts | 356° |
| 2026-04-30 19:54 | 46.00001 | -0.92968 | 35152 ft | 459 kts | 357° |
| 2026-04-30 19:54 | 46.06388 | -0.93336 | 35157 ft | 460 kts | 357° |
| 2026-04-30 19:55 | 46.12786 | -0.93706 | 35146 ft | 460 kts | 357° |
| 2026-04-30 19:55 | 46.19157 | -0.94517 | 35129 ft | 461 kts | 345° |
| 2026-04-30 19:56 | 46.24988 | -0.98262 | 35124 ft | 462 kts | 325° |
| 2026-04-30 19:56 | 46.30015 | -1.04055 | 35141 ft | 463 kts | 321° |
| 2026-04-30 19:57 | 46.34996 | -1.09988 | 35126 ft | 464 kts | 321° |
| 2026-04-30 19:57 | 46.40016 | -1.15870 | 35133 ft | 464 kts | 322° |
| 2026-04-30 19:58 | 46.45055 | -1.21734 | 35149 ft | 465 kts | 321° |
| 2026-04-30 19:58 | 46.50095 | -1.27612 | 35130 ft | 464 kts | 321° |
| 2026-04-30 19:59 | 46.55121 | -1.33491 | 35141 ft | 464 kts | 321° |
| 2026-04-30 19:59 | 46.60674 | -1.38026 | 35145 ft | 464 kts | 344° |
| 2026-04-30 20:00 | 46.63841 | -1.38908 | 35125 ft | 465 kts | 355° |
| 2026-04-30 20:00 | 46.70301 | -1.38562 | 35136 ft | 465 kts | 3° |
| 2026-04-30 20:01 | 46.80012 | -1.37708 | 35120 ft | 466 kts | 2° |
| 2026-04-30 20:01 | 46.86493 | -1.37246 | 35138 ft | 466 kts | 2° |
| 2026-04-30 20:02 | 46.96210 | -1.36571 | 35142 ft | 466 kts | 2° |
| 2026-04-30 20:03 | 47.04829 | -1.36820 | 35139 ft | 466 kts | 357° |
| 2026-04-30 20:03 | 47.11298 | -1.37330 | 35117 ft | 466 kts | 357° |
| 2026-04-30 20:04 | 47.17769 | -1.37794 | 35132 ft | 465 kts | 358° |
| 2026-04-30 20:05 | 47.27507 | -1.38419 | 35134 ft | 468 kts | 358° |
| 2026-04-30 20:05 | 47.37253 | -1.39035 | 35123 ft | 467 kts | 358° |
| 2026-04-30 20:06 | 47.43766 | -1.39450 | 35136 ft | 470 kts | 358° |
| 2026-04-30 20:06 | 47.50312 | -1.39869 | 35136 ft | 472 kts | 358° |
| 2026-04-30 20:07 | 47.56862 | -1.40290 | 35121 ft | 470 kts | 358° |
| 2026-04-30 20:08 | 47.66678 | -1.40921 | 35137 ft | 472 kts | 358° |
| 2026-04-30 20:08 | 47.73253 | -1.41354 | 35128 ft | 473 kts | 357° |
| 2026-04-30 20:09 | 47.79807 | -1.41850 | 35132 ft | 471 kts | 357° |
| 2026-04-30 20:09 | 47.89648 | -1.42609 | 35130 ft | 473 kts | 357° |
| 2026-04-30 20:10 | 47.99521 | -1.43358 | 35133 ft | 474 kts | 357° |
| 2026-04-30 20:11 | 48.09409 | -1.44087 | 35135 ft | 475 kts | 357° |
| 2026-04-30 20:11 | 48.15983 | -1.44550 | 35132 ft | 476 kts | 357° |
| 2026-04-30 20:12 | 48.25909 | -1.45255 | 35131 ft | 477 kts | 357° |
| 2026-04-30 20:13 | 48.32557 | -1.45732 | 35136 ft | 478 kts | 357° |
| 2026-04-30 20:13 | 48.39205 | -1.46210 | 35128 ft | 478 kts | 357° |
| 2026-04-30 20:14 | 48.45811 | -1.46687 | 35117 ft | 472 kts | 357° |
| 2026-04-30 20:14 | 48.52330 | -1.47158 | 35122 ft | 468 kts | 357° |
| 2026-04-30 20:15 | 48.58827 | -1.47629 | 35128 ft | 467 kts | 357° |
| 2026-04-30 20:15 | 48.65307 | -1.48101 | 35125 ft | 467 kts | 357° |
| 2026-04-30 20:16 | 48.71797 | -1.48574 | 35125 ft | 467 kts | 357° |
| 2026-04-30 20:16 | 48.78298 | -1.49049 | 35119 ft | 468 kts | 357° |
| 2026-04-30 20:17 | 48.84810 | -1.49526 | 34876 ft | 471 kts | 357° |
| 2026-04-30 20:17 | 48.88075 | -1.49766 | 34638 ft | 468 kts | 357° |
| 2026-04-30 20:17 | 48.91302 | -1.50186 | 34388 ft | 465 kts | 350° |
| 2026-04-30 20:17 | 48.94481 | -1.51107 | 34168 ft | 465 kts | 348° |
| 2026-04-30 20:18 | 48.97645 | -1.52167 | 33903 ft | 466 kts | 347° |
| 2026-04-30 20:18 | 49.00811 | -1.53265 | 33634 ft | 467 kts | 347° |
| 2026-04-30 20:18 | 49.03976 | -1.54355 | 33363 ft | 467 kts | 347° |
| 2026-04-30 20:18 | 49.07155 | -1.55426 | 33100 ft | 468 kts | 347° |
| 2026-04-30 20:19 | 49.10339 | -1.56479 | 32708 ft | 467 kts | 348° |
| 2026-04-30 20:19 | 49.13526 | -1.57518 | 31945 ft | 468 kts | 348° |
| 2026-04-30 20:19 | 49.16707 | -1.58549 | 31200 ft | 469 kts | 348° |
| 2026-04-30 20:19 | 49.19906 | -1.59583 | 30442 ft | 470 kts | 348° |
| 2026-04-30 20:20 | 49.23114 | -1.60621 | 29576 ft | 472 kts | 348° |
| 2026-04-30 20:20 | 49.26329 | -1.61664 | 28694 ft | 473 kts | 348° |
| 2026-04-30 20:20 | 49.29548 | -1.62711 | 27822 ft | 473 kts | 348° |
| 2026-04-30 20:20 | 49.32769 | -1.63761 | 26928 ft | 474 kts | 348° |
| 2026-04-30 20:21 | 49.36004 | -1.64817 | 26014 ft | 476 kts | 348° |
| 2026-04-30 20:21 | 49.39229 | -1.65872 | 25391 ft | 471 kts | 349° |
| 2026-04-30 20:21 | 49.42422 | -1.66918 | 24731 ft | 468 kts | 349° |
| 2026-04-30 20:21 | 49.45590 | -1.67957 | 24091 ft | 464 kts | 349° |
| 2026-04-30 20:22 | 49.48739 | -1.68991 | 23406 ft | 461 kts | 349° |
| 2026-04-30 20:22 | 49.51824 | -1.70005 | 22676 ft | 458 kts | 349° |
| 2026-04-30 20:22 | 49.54919 | -1.71023 | 22031 ft | 453 kts | 349° |
| 2026-04-30 20:22 | 49.57998 | -1.72026 | 21364 ft | 450 kts | 351° |
| 2026-04-30 20:23 | 49.61091 | -1.72594 | 20727 ft | 446 kts | 0° |
| 2026-04-30 20:23 | 49.64165 | -1.72431 | 20116 ft | 442 kts | 6° |
| 2026-04-30 20:23 | 49.67259 | -1.72116 | 19490 ft | 450 kts | 6° |
| 2026-04-30 20:23 | 49.70409 | -1.71781 | 18824 ft | 454 kts | 6° |
| 2026-04-30 20:24 | 49.73556 | -1.71466 | 18102 ft | 452 kts | 6° |
| 2026-04-30 20:24 | 49.76678 | -1.71178 | 17399 ft | 447 kts | 5° |
| 2026-04-30 20:24 | 49.79771 | -1.70910 | 16712 ft | 443 kts | 5° |
| 2026-04-30 20:24 | 49.82831 | -1.70652 | 16059 ft | 438 kts | 5° |
| 2026-04-30 20:25 | 49.88866 | -1.70145 | 14792 ft | 431 kts | 5° |
| 2026-04-30 20:25 | 49.91850 | -1.69893 | 14168 ft | 427 kts | 5° |
| 2026-04-30 20:26 | 49.97736 | -1.69394 | 12814 ft | 420 kts | 5° |
| 2026-04-30 20:26 | 50.03356 | -1.67734 | 11649 ft | 405 kts | 20° |
| 2026-04-30 20:26 | 50.06014 | -1.66382 | 11181 ft | 397 kts | 20° |
| 2026-04-30 20:27 | 50.11073 | -1.63835 | 10871 ft | 369 kts | 20° |
| 2026-04-30 20:27 | 50.15873 | -1.61466 | 10583 ft | 361 kts | 20° |
| 2026-04-30 20:28 | 50.20701 | -1.59096 | 10276 ft | 366 kts | 20° |
| 2026-04-30 20:28 | 50.25565 | -1.56786 | 9724 ft | 368 kts | 13° |
| 2026-04-30 20:29 | 50.30601 | -1.57766 | 8998 ft | 366 kts | 345° |
| 2026-04-30 20:30 | 50.37886 | -1.61102 | 7918 ft | 374 kts | 344° |
| 2026-04-30 20:30 | 50.45592 | -1.64511 | 7393 ft | 383 kts | 344° |
| 2026-04-30 20:31 | 50.52791 | -1.64524 | 7136 ft | 328 kts | 24° |
| 2026-04-30 20:32 | 50.58614 | -1.60384 | 7122 ft | 286 kts | 27° |
| 2026-04-30 20:32 | 50.62075 | -1.57978 | 7114 ft | 263 kts | 20° |
| 2026-04-30 20:33 | 50.63848 | -1.57720 | 7059 ft | 255 kts | 349° |
| 2026-04-30 20:33 | 50.66680 | -1.60722 | 6705 ft | 242 kts | 311° |
| 2026-04-30 20:33 | 50.67807 | -1.62604 | 6444 ft | 242 kts | 311° |
| 2026-04-30 20:34 | 50.70089 | -1.66472 | 5950 ft | 239 kts | 309° |
| 2026-04-30 20:34 | 50.72146 | -1.70571 | 5428 ft | 238 kts | 304° |
| 2026-04-30 20:35 | 50.73146 | -1.72643 | 5182 ft | 237 kts | 304° |
| 2026-04-30 20:35 | 50.74144 | -1.74711 | 4940 ft | 237 kts | 304° |
| 2026-04-30 20:35 | 50.76134 | -1.78853 | 4329 ft | 240 kts | 305° |
| 2026-04-30 20:36 | 50.77135 | -1.80964 | 4279 ft | 239 kts | 304° |
| 2026-04-30 20:36 | 50.78172 | -1.83174 | 4417 ft | 266 kts | 304° |
| 2026-04-30 20:36 | 50.80275 | -1.88044 | 4334 ft | 260 kts | 287° |
| 2026-04-30 20:37 | 50.80654 | -1.90721 | 4241 ft | 242 kts | 274° |
| 2026-04-30 20:37 | 50.80836 | -1.93289 | 4078 ft | 233 kts | 272° |
| 2026-04-30 20:37 | 50.80983 | -1.95831 | 3911 ft | 229 kts | 271° |
| 2026-04-30 20:37 | 50.81119 | -1.98316 | 3710 ft | 227 kts | 271° |
| 2026-04-30 20:38 | 50.81273 | -2.00815 | 3411 ft | 230 kts | 272° |
| 2026-04-30 20:38 | 50.81439 | -2.03342 | 3155 ft | 231 kts | 272° |
| 2026-04-30 20:38 | 50.81484 | -2.05864 | 2897 ft | 227 kts | 253° |
| 2026-04-30 20:39 | 50.79444 | -2.08590 | 2381 ft | 197 kts | 168° |
| 2026-04-30 20:39 | 50.78306 | -2.07605 | 2209 ft | 185 kts | 133° |
| 2026-04-30 20:39 | 50.77482 | -2.06065 | 1975 ft | 179 kts | 128° |
| 2026-04-30 20:40 | 50.76306 | -2.02797 | 1607 ft | 169 kts | 120° |
| 2026-04-30 20:40 | 50.75987 | -2.01017 | 1521 ft | 171 kts | 99° |
| 2026-04-30 20:40 | 50.75791 | -1.99160 | 1500 ft | 172 kts | 100° |
| 2026-04-30 20:41 | 50.76162 | -1.95513 | 1377 ft | 155 kts | 83° |
| 2026-04-30 20:41 | 50.76405 | -1.93955 | 1167 ft | 141 kts | 80° |
| 2026-04-30 20:41 | 50.76651 | -1.92462 | 1007 ft | 139 kts | 78° |
| 2026-04-30 20:41 | 50.76896 | -1.90985 | 826 ft | 141 kts | 78° |
| 2026-04-30 20:42 | 50.77142 | -1.89486 | 631 ft | 140 kts | 78° |
| 2026-04-30 20:42 | 50.77401 | -1.87962 | 473 ft | 152 kts | 77° |
| 2026-04-30 20:42 | 50.77908 | -1.84845 | 56 ft | 136 kts | 77° |
| 2026-04-30 20:43 | 50.78120 | -1.83583 | 45 ft | 92 kts | 74° |
| 2026-04-30 20:43 | 50.78226 | -1.82936 | 44 ft | 31 kts | 77° |
| 2026-04-30 20:43 | 50.78225 | -1.82814 | 44 ft | 6 kts | 120° |
| 2026-04-30 20:44 | 50.78207 | -1.82748 | 45 ft | 3 kts | 117° |
| 2026-04-30 20:44 | 50.78188 | -1.82748 | 45 ft | 3 kts | 198° |
| 2026-04-30 20:44 | 50.78154 | -1.82795 | 45 ft | 4 kts | 230° |
| 2026-04-30 20:45 | 50.78119 | -1.82946 | 45 ft | 11 kts | 268° |
| 2026-04-30 20:45 | 50.78122 | -1.83070 | 45 ft | 11 kts | 258° |
| 2026-04-30 20:45 | 50.78089 | -1.83179 | 44 ft | 11 kts | 235° |
| 2026-04-30 20:46 | 50.78026 | -1.83358 | 45 ft | 10 kts | 243° |
| 2026-04-30 20:46 | 50.77972 | -1.83478 | 45 ft | 15 kts | 218° |
| 2026-04-30 20:47 | 50.77890 | -1.83471 | 43 ft | 4 kts | 108° |
| 2026-04-30 20:47 | 50.77885 | -1.83418 | 45 ft | 5 kts | 88° |
| 2026-04-30 20:48 | 50.77886 | -1.83386 | 45 ft | 0 kts | 88° |